createdAt,value
2023-03-27T00:01:28.083Z,1.66
2023-03-27T00:03:56.206Z,1.66
2023-03-27T00:06:25.090Z,1.67
2023-03-27T00:08:53.797Z,1.68
2023-03-27T00:11:24.912Z,1.70
2023-03-27T00:13:56.184Z,1.73
2023-03-27T00:16:27.021Z,1.74
2023-03-27T00:18:56.180Z,1.78
2023-03-27T00:21:26.185Z,1.83
2023-03-27T00:23:54.633Z,1.88
2023-03-27T00:26:23.214Z,1.91
2023-03-27T00:28:53.015Z,1.97
2023-03-27T00:31:21.746Z,2.03
2023-03-27T00:33:50.034Z,2.09
2023-03-27T00:36:18.150Z,2.16
2023-03-27T00:38:46.328Z,2.23
2023-03-27T00:41:14.937Z,2.31
2023-03-27T00:43:44.225Z,2.38
2023-03-27T00:46:15.657Z,2.44
2023-03-27T00:48:48.034Z,2.50
2023-03-27T00:51:18.357Z,2.57
2023-03-27T00:53:48.993Z,2.67
2023-03-27T00:56:18.049Z,2.78
2023-03-27T00:58:54.249Z,2.90
2023-03-27T01:01:23.923Z,3.06
2023-03-27T01:03:54.110Z,3.20
2023-03-27T01:06:22.671Z,3.31
2023-03-27T01:08:51.144Z,3.41
2023-03-27T01:11:25.367Z,3.50
2023-03-27T01:13:56.091Z,3.59
2023-03-27T01:16:28.159Z,3.66
2023-03-27T01:19:36.676Z,3.72
2023-03-27T01:22:23.194Z,3.76
2023-03-27T01:25:22.592Z,3.81
2023-03-27T01:28:19.668Z,3.86
2023-03-27T01:30:50.681Z,3.90
2023-03-27T01:33:43.531Z,3.98
2023-03-27T01:36:35.361Z,4.04
2023-03-27T01:39:06.710Z,4.11
2023-03-27T01:41:37.774Z,4.18
2023-03-27T01:44:17.921Z,4.25
2023-03-27T01:46:53.647Z,4.33
2023-03-27T01:49:30.541Z,4.40
2023-03-27T01:52:01.598Z,4.47
2023-03-27T01:54:42.273Z,4.54
2023-03-27T01:57:25.426Z,4.63
2023-03-27T02:00:19.472Z,4.71
2023-03-27T02:02:59.882Z,4.80
2023-03-27T02:05:36.708Z,4.91
2023-03-27T02:08:38.045Z,5.03
2023-03-27T02:11:15.639Z,5.17
2023-03-27T02:13:55.702Z,5.30
2023-03-27T02:16:33.880Z,5.43
2023-03-27T02:19:11.908Z,5.55
2023-03-27T02:21:40.209Z,5.65
2023-03-27T02:24:09.106Z,5.72
2023-03-27T02:26:38.077Z,5.78
2023-03-27T02:29:21.912Z,5.80
2023-03-27T02:31:58.834Z,5.84
2023-03-27T02:34:36.471Z,5.88
2023-03-27T02:37:19.212Z,5.89
2023-03-27T02:40:44.734Z,5.91
2023-03-27T02:43:43.175Z,5.87
2023-03-27T02:46:17.002Z,5.85
2023-03-27T02:48:55.003Z,5.84
2023-03-27T02:51:28.519Z,5.83
2023-03-27T02:54:03.451Z,5.80
2023-03-27T02:56:38.477Z,5.79
2023-03-27T02:59:35.605Z,5.79
2023-03-27T03:02:08.136Z,5.77
2023-03-27T03:05:02.149Z,5.75
2023-03-27T03:07:38.304Z,5.75
2023-03-27T03:10:12.792Z,5.74
2023-03-27T03:12:40.964Z,5.73
2023-03-27T03:15:10.673Z,5.71
2023-03-27T03:17:39.153Z,5.70
2023-03-27T03:20:09.798Z,5.68
2023-03-27T03:22:42.256Z,5.67
2023-03-27T03:25:13.209Z,5.67
2023-03-27T03:27:41.479Z,5.68
2023-03-27T03:30:16.939Z,5.68
2023-03-27T03:33:01.700Z,5.66
2023-03-27T03:35:30.022Z,5.67
2023-03-27T03:37:59.576Z,5.68
2023-03-27T03:40:28.155Z,5.70
2023-03-27T03:42:58.529Z,5.72
2023-03-27T03:45:31.442Z,5.71
2023-03-27T03:48:01.246Z,5.69
2023-03-27T03:50:29.756Z,5.66
2023-03-27T03:52:57.930Z,5.64
2023-03-27T03:55:26.111Z,5.63
2023-03-27T03:57:54.283Z,5.62
2023-03-27T04:00:27.194Z,5.63
2023-03-27T04:02:56.034Z,5.63
2023-03-27T04:05:24.740Z,5.63
2023-03-27T04:07:54.264Z,5.66
2023-03-27T04:10:41.738Z,5.74
2023-03-27T04:13:23.870Z,5.84
2023-03-27T04:16:01.952Z,5.95
2023-03-27T04:18:39.539Z,6.06
2023-03-27T04:21:19.743Z,6.14
2023-03-27T04:23:51.393Z,6.19
2023-03-27T04:26:27.436Z,6.20
2023-03-27T04:29:14.063Z,6.20
2023-03-27T04:32:01.129Z,6.21
2023-03-27T04:35:05.190Z,6.32
2023-03-27T04:37:49.133Z,6.41
2023-03-27T04:40:46.246Z,6.47
2023-03-27T04:43:16.519Z,6.52
2023-03-27T04:45:48.308Z,6.58
2023-03-27T04:48:16.457Z,6.57
2023-03-27T04:50:49.569Z,6.52
2023-03-27T04:53:31.326Z,6.50
2023-03-27T04:55:59.605Z,6.51
2023-03-27T04:58:28.541Z,6.56
2023-03-27T05:00:57.938Z,6.61
2023-03-27T05:04:05.090Z,6.64
2023-03-27T05:06:51.600Z,6.67
2023-03-27T05:09:20.695Z,6.67
2023-03-27T05:11:50.820Z,6.68
2023-03-27T05:14:21.875Z,6.67
2023-03-27T05:16:52.463Z,6.68
2023-03-27T05:19:21.282Z,6.69
2023-03-27T05:21:57.944Z,6.68
2023-03-27T05:24:27.248Z,6.67
2023-03-27T05:26:56.134Z,6.66
2023-03-27T05:29:24.517Z,6.65
2023-03-27T05:32:01.183Z,6.64
2023-03-27T05:34:50.893Z,6.64
2023-03-27T05:37:19.530Z,6.63
2023-03-27T05:40:07.086Z,6.63
2023-03-27T05:42:35.255Z,6.63
2023-03-27T05:45:03.956Z,6.63
2023-03-27T05:47:32.121Z,6.64
2023-03-27T05:50:00.699Z,6.58
2023-03-27T05:52:29.078Z,6.53
2023-03-27T05:54:57.761Z,6.51
2023-03-27T05:57:26.139Z,6.50
2023-03-27T05:59:57.182Z,6.50
2023-03-27T06:02:25.574Z,6.51
2023-03-27T06:04:59.349Z,6.48
2023-03-27T06:07:39.073Z,6.48
2023-03-27T06:10:13.740Z,6.48
2023-03-27T06:13:12.253Z,6.46
2023-03-27T06:16:00.983Z,6.45
2023-03-27T06:18:48.472Z,6.43
2023-03-27T06:21:17.954Z,6.40
2023-03-27T06:23:46.500Z,6.38
2023-03-27T06:26:15.671Z,6.39
2023-03-27T06:28:44.287Z,6.38
2023-03-27T06:31:15.056Z,6.38
2023-03-27T06:34:18.705Z,6.38
2023-03-27T06:37:04.482Z,6.38
2023-03-27T06:39:37.660Z,6.41
2023-03-27T06:42:05.777Z,6.43
2023-03-27T06:44:36.723Z,6.46
2023-03-27T06:47:26.717Z,6.48
2023-03-27T06:50:31.741Z,6.50
2023-03-27T06:53:00.328Z,6.56
2023-03-27T06:55:44.531Z,6.63
2023-03-27T06:58:18.784Z,6.70
2023-03-27T07:00:49.750Z,6.77
2023-03-27T07:03:20.683Z,6.84
2023-03-27T07:06:08.943Z,6.94
2023-03-27T07:09:01.357Z,7.02
2023-03-27T07:11:31.701Z,7.07
2023-03-27T07:14:03.043Z,7.14
2023-03-27T07:16:31.766Z,7.20
2023-03-27T07:19:02.572Z,7.27
2023-03-27T07:21:32.188Z,7.36
2023-03-27T07:24:00.945Z,7.43
2023-03-27T07:26:34.040Z,7.51
2023-03-27T07:29:13.169Z,7.59
2023-03-27T07:31:55.359Z,7.69
2023-03-27T07:34:51.613Z,7.80
2023-03-27T07:37:29.204Z,7.91
2023-03-27T07:40:40.164Z,7.98
2023-03-27T07:43:37.894Z,8.02
2023-03-27T07:46:06.860Z,8.09
2023-03-27T07:48:36.092Z,8.14
2023-03-27T07:51:14.192Z,8.19
2023-03-27T07:53:49.277Z,8.24
2023-03-27T07:56:23.658Z,8.27
2023-03-27T07:59:08.026Z,8.27
2023-03-27T08:01:36.434Z,8.28
2023-03-27T08:04:05.744Z,8.29
2023-03-27T08:06:35.256Z,8.31
2023-03-27T08:09:05.903Z,8.29
2023-03-27T08:11:36.522Z,8.30
2023-03-27T08:14:06.125Z,8.31
2023-03-27T08:16:36.655Z,8.36
2023-03-27T08:19:06.366Z,8.47
2023-03-27T08:21:38.722Z,8.55
2023-03-27T08:24:07.695Z,8.62
2023-03-27T08:26:36.469Z,8.68
2023-03-27T08:29:10.218Z,8.60
2023-03-27T08:31:39.725Z,8.60
2023-03-27T08:34:08.773Z,8.60
2023-03-27T08:36:44.999Z,8.66
2023-03-27T08:39:13.922Z,8.67
2023-03-27T08:41:55.302Z,8.71
2023-03-27T08:44:36.327Z,8.67
2023-03-27T08:47:28.669Z,8.65
2023-03-27T08:50:16.784Z,8.66
2023-03-27T08:52:51.236Z,8.66
2023-03-27T08:55:34.532Z,8.65
2023-03-27T08:58:38.267Z,8.63
2023-03-27T09:01:36.640Z,8.64
2023-03-27T09:04:50.875Z,8.63
2023-03-27T09:07:32.707Z,8.64
2023-03-27T09:10:38.912Z,8.66
2023-03-27T09:13:27.231Z,8.69
2023-03-27T09:16:13.168Z,8.71
2023-03-27T09:19:12.591Z,8.74
2023-03-27T09:21:55.147Z,8.76
2023-03-27T09:24:44.715Z,8.75
2023-03-27T09:27:37.873Z,8.76
2023-03-27T09:30:33.577Z,8.77
2023-03-27T09:33:12.001Z,8.79
2023-03-27T09:35:42.760Z,8.81
2023-03-27T09:38:35.751Z,8.84
2023-03-27T09:41:14.612Z,8.90
2023-03-27T09:43:58.568Z,8.95
2023-03-27T09:46:28.788Z,9.00
2023-03-27T09:49:04.122Z,9.04
2023-03-27T09:51:39.362Z,9.06
2023-03-27T09:54:14.470Z,9.08
2023-03-27T09:57:11.481Z,9.06
2023-03-27T10:00:14.846Z,9.08
2023-03-27T10:02:42.949Z,9.07
2023-03-27T10:05:22.266Z,9.09
2023-03-27T10:07:54.531Z,9.10
2023-03-27T10:10:58.133Z,9.10
2023-03-27T10:13:48.164Z,9.12
2023-03-27T10:16:21.047Z,9.15
2023-03-27T10:19:00.590Z,9.17
2023-03-27T10:21:39.097Z,9.16
2023-03-27T10:24:19.232Z,9.21
2023-03-27T10:27:25.475Z,9.27
2023-03-27T10:30:27.555Z,9.38
2023-03-27T10:32:59.920Z,9.50
2023-03-27T10:35:44.940Z,9.65
2023-03-27T10:38:33.411Z,9.79
2023-03-27T10:41:17.650Z,9.95
2023-03-27T10:43:57.861Z,10.10
2023-03-27T10:46:29.203Z,10.24
2023-03-27T10:49:07.001Z,10.37
2023-03-27T10:51:46.120Z,10.52
2023-03-27T10:54:43.307Z,10.69
2023-03-27T10:57:23.337Z,10.90
2023-03-27T11:00:01.989Z,11.09
2023-03-27T11:03:00.313Z,11.26
2023-03-27T11:05:40.035Z,11.36
2023-03-27T11:08:41.782Z,11.46
2023-03-27T11:11:38.697Z,11.53
2023-03-27T11:14:18.784Z,11.61
2023-03-27T11:16:56.062Z,11.65
2023-03-27T11:19:54.742Z,11.67
2023-03-27T11:22:39.496Z,11.69
2023-03-27T11:25:23.217Z,11.75
2023-03-27T11:28:12.767Z,11.77
2023-03-27T11:30:56.075Z,11.79
2023-03-27T11:33:37.314Z,11.82
2023-03-27T11:36:33.031Z,11.78
2023-03-27T11:39:45.441Z,11.77
2023-03-27T11:42:24.518Z,11.75
2023-03-27T11:44:53.574Z,11.75
2023-03-27T11:47:56.172Z,11.77
2023-03-27T11:50:48.404Z,11.82
2023-03-27T11:53:24.352Z,11.79
2023-03-27T11:56:20.488Z,11.68
2023-03-27T11:59:04.518Z,11.67
2023-03-27T12:01:51.824Z,11.63
2023-03-27T12:04:40.991Z,11.60
2023-03-27T12:07:36.366Z,11.59
2023-03-27T12:10:19.006Z,11.57
2023-03-27T12:13:24.302Z,11.54
2023-03-27T12:16:03.857Z,11.49
2023-03-27T12:19:05.892Z,11.44
2023-03-27T12:25:35.987Z,11.31
2023-03-27T12:28:49.474Z,11.18
2023-03-27T12:31:47.301Z,11.06
2023-03-27T12:34:51.013Z,11.00
2023-03-27T12:37:31.201Z,10.97
2023-03-27T12:40:01.254Z,10.95
2023-03-27T12:42:48.598Z,10.90
2023-03-27T12:45:23.541Z,10.87
2023-03-27T12:48:10.135Z,10.82
2023-03-27T12:50:54.786Z,10.80
2023-03-27T12:53:26.934Z,10.77
2023-03-27T12:56:19.474Z,10.70
2023-03-27T12:58:53.040Z,10.64
2023-03-27T13:01:51.685Z,10.62
2023-03-27T13:04:47.996Z,10.58
2023-03-27T13:07:54.944Z,10.56
2023-03-27T13:11:02.361Z,10.58
2023-03-27T13:13:34.127Z,10.60
2023-03-27T13:16:26.633Z,10.60
2023-03-27T13:19:10.614Z,10.65
2023-03-27T13:22:37.415Z,10.73
2023-03-27T13:25:20.590Z,10.85
2023-03-27T13:27:49.042Z,10.94
2023-03-27T13:30:48.439Z,11.04
2023-03-27T13:33:36.020Z,11.17
2023-03-27T13:36:12.464Z,11.31
2023-03-27T13:39:11.361Z,11.42
2023-03-27T13:41:45.898Z,11.55
2023-03-27T13:44:35.482Z,11.64
2023-03-27T13:47:26.509Z,11.72
2023-03-27T13:50:23.427Z,11.81
2023-03-27T13:53:08.093Z,11.90
2023-03-27T13:56:30.030Z,11.97
2023-03-27T13:59:22.542Z,12.04
2023-03-27T14:01:54.923Z,12.08
2023-03-27T14:04:34.187Z,12.12
2023-03-27T14:07:41.990Z,12.14
2023-03-27T14:10:34.732Z,12.15
2023-03-27T14:13:29.221Z,12.19
2023-03-27T14:16:28.249Z,12.25
2023-03-27T14:19:31.010Z,12.33
2023-03-27T14:22:01.305Z,12.40
2023-03-27T14:25:04.737Z,12.46
2023-03-27T14:27:49.195Z,12.57
2023-03-27T14:30:22.291Z,12.66
2023-03-27T14:33:03.431Z,12.74
2023-03-27T14:35:38.363Z,12.78
2023-03-27T14:38:22.115Z,12.85
2023-03-27T14:40:52.469Z,12.92
2023-03-27T14:43:27.913Z,12.98
2023-03-27T14:46:03.394Z,13.01
2023-03-27T14:48:42.593Z,13.00
2023-03-27T14:51:19.568Z,13.00
2023-03-27T14:53:51.141Z,13.00
2023-03-27T14:56:37.356Z,12.92
2023-03-27T14:59:26.810Z,12.80
2023-03-27T15:02:02.054Z,12.74
2023-03-27T15:04:32.884Z,12.67
2023-03-27T15:07:15.592Z,12.61
2023-03-27T15:10:06.270Z,12.52
2023-03-27T15:12:54.012Z,12.47
2023-03-27T15:15:29.835Z,12.41
2023-03-27T15:17:59.927Z,12.33
2023-03-27T15:20:31.820Z,12.29
2023-03-27T15:23:00.941Z,12.24
2023-03-27T15:25:33.442Z,12.16
2023-03-27T15:28:07.011Z,12.09
2023-03-27T15:30:43.637Z,12.04
2023-03-27T15:33:20.396Z,12.03
2023-03-27T15:36:03.850Z,11.97
2023-03-27T15:39:14.675Z,11.92
2023-03-27T15:42:05.704Z,11.86
2023-03-27T15:44:39.727Z,11.80
2023-03-27T15:47:40.181Z,11.69
2023-03-27T15:50:34.933Z,11.56
2023-03-27T15:53:26.448Z,11.51
2023-03-27T15:56:19.315Z,11.45
2023-03-27T15:59:35.738Z,11.31
2023-03-27T16:02:45.522Z,11.11
2023-03-27T16:05:20.756Z,10.96
2023-03-27T16:08:28.266Z,10.80
2023-03-27T16:12:01.758Z,10.66
2023-03-27T16:15:14.164Z,10.50
2023-03-27T16:18:05.077Z,10.35
2023-03-27T16:21:00.031Z,10.23
2023-03-27T16:24:11.713Z,10.11
2023-03-27T16:27:25.597Z,10.03
2023-03-27T16:30:32.025Z,9.96
2023-03-27T16:33:45.811Z,9.89
2023-03-27T16:36:52.451Z,9.86
2023-03-27T16:40:31.489Z,9.85
2023-03-27T16:44:00.383Z,9.85
2023-03-27T16:46:41.358Z,9.81
2023-03-27T16:49:42.006Z,9.80
2023-03-27T16:52:49.700Z,9.77
2023-03-27T16:56:00.505Z,9.75
2023-03-27T16:59:04.950Z,9.73
2023-03-27T17:02:22.935Z,9.69
2023-03-27T17:05:04.843Z,9.58
2023-03-27T17:08:23.284Z,9.51
2023-03-27T17:11:08.286Z,9.46
2023-03-27T17:13:43.634Z,9.41
2023-03-27T17:16:29.924Z,9.36
2023-03-27T17:19:26.637Z,9.31
2023-03-27T17:22:34.495Z,9.25
2023-03-27T17:25:07.632Z,9.20
2023-03-27T17:27:37.343Z,9.13
2023-03-27T17:30:30.506Z,9.06
2023-03-27T17:33:08.515Z,8.99
2023-03-27T17:35:41.027Z,8.95
2023-03-27T17:38:20.955Z,8.90
2023-03-27T17:40:51.735Z,8.86
2023-03-27T17:43:31.620Z,8.82
2023-03-27T17:46:09.135Z,8.79
2023-03-27T17:48:52.296Z,8.73
2023-03-27T17:51:41.817Z,8.66
2023-03-27T17:54:10.532Z,8.61
2023-03-27T17:57:10.083Z,8.58
2023-03-27T17:59:38.800Z,8.55
2023-03-27T18:02:07.978Z,8.52
2023-03-27T18:04:39.041Z,8.49
2023-03-27T18:07:10.116Z,8.45
2023-03-27T18:09:49.223Z,8.44
2023-03-27T18:12:21.279Z,8.42
2023-03-27T18:15:14.655Z,8.39
2023-03-27T18:17:43.162Z,8.36
2023-03-27T18:20:11.919Z,8.35
2023-03-27T18:22:42.606Z,8.33
2023-03-27T18:25:11.657Z,8.32
2023-03-27T18:28:00.414Z,8.31
2023-03-27T18:30:38.614Z,8.30
2023-03-27T18:33:30.051Z,8.29
2023-03-27T18:36:12.213Z,8.27
2023-03-27T18:38:42.010Z,8.26
2023-03-27T18:41:16.699Z,8.25
2023-03-27T18:43:47.648Z,8.24
2023-03-27T18:46:19.371Z,8.23
2023-03-27T18:48:50.608Z,8.22
2023-03-27T18:51:29.561Z,8.21
2023-03-27T18:54:20.956Z,8.19
2023-03-27T18:56:50.089Z,8.15
2023-03-27T18:59:18.352Z,8.12
2023-03-27T19:01:46.733Z,8.10
2023-03-27T19:04:23.694Z,8.08
2023-03-27T19:06:55.455Z,8.04
2023-03-27T19:09:54.346Z,7.99
2023-03-27T19:12:26.417Z,7.98
2023-03-27T19:15:23.985Z,7.97
2023-03-27T19:18:11.581Z,7.97
2023-03-27T19:21:12.954Z,7.96
2023-03-27T19:23:57.428Z,7.95
2023-03-27T19:26:53.971Z,7.90
2023-03-27T19:29:25.918Z,7.87
2023-03-27T19:31:59.267Z,7.86
2023-03-27T19:34:41.878Z,7.87
2023-03-27T19:37:23.940Z,7.88
2023-03-27T19:40:19.657Z,7.87
2023-03-27T19:42:50.899Z,7.88
2023-03-27T19:45:39.851Z,7.87
2023-03-27T19:48:21.469Z,7.86
2023-03-27T19:51:04.022Z,7.83
2023-03-27T19:53:55.688Z,7.80
2023-03-27T19:57:01.054Z,7.79
2023-03-27T19:59:31.388Z,7.77
2023-03-27T20:02:23.042Z,7.75
2023-03-27T20:05:38.097Z,7.71
2023-03-27T20:08:32.028Z,7.68
2023-03-27T20:11:39.390Z,7.64
2023-03-27T20:14:41.188Z,7.61
2023-03-27T20:17:53.373Z,7.60
2023-03-27T20:20:33.378Z,7.54
2023-03-27T20:23:15.341Z,7.50
2023-03-27T20:26:44.187Z,7.47
2023-03-27T20:30:03.406Z,7.37
2023-03-27T20:33:07.200Z,7.14
2023-03-27T20:35:49.148Z,6.42
2023-03-27T20:38:32.934Z,6.06
2023-03-27T20:42:03.289Z,5.83
2023-03-27T20:45:16.520Z,5.52
2023-03-27T20:47:47.358Z,5.20
2023-03-27T20:50:42.895Z,4.90
2023-03-27T20:53:26.198Z,4.57
2023-03-27T20:56:03.552Z,4.17
2023-03-27T20:58:37.581Z,4.02
2023-03-27T21:01:10.323Z,3.89
2023-03-27T21:03:50.051Z,3.74
2023-03-27T21:06:20.665Z,3.59
2023-03-27T21:08:59.352Z,3.44
2023-03-27T21:11:27.465Z,3.16
2023-03-27T21:13:58.495Z,3.00
2023-03-27T21:16:27.549Z,2.88
2023-03-27T21:18:56.176Z,2.74
2023-03-27T21:21:24.892Z,2.73
2023-03-27T21:24:03.379Z,2.66
2023-03-27T21:26:31.518Z,2.59
2023-03-27T21:28:59.987Z,2.46
2023-03-27T21:31:39.136Z,2.34
2023-03-27T21:34:16.979Z,2.34
2023-03-27T21:36:45.899Z,2.29
2023-03-27T21:39:14.241Z,2.23
2023-03-27T21:41:42.823Z,2.20
2023-03-27T21:44:17.501Z,2.11
2023-03-27T21:46:46.573Z,1.98
2023-03-27T21:49:25.784Z,1.93
2023-03-27T21:51:54.235Z,1.91
2023-03-27T21:54:23.206Z,1.86
2023-03-27T21:56:57.280Z,1.79
2023-03-27T21:59:43.392Z,1.72
2023-03-27T22:02:12.058Z,1.67
2023-03-27T22:04:40.629Z,1.64
2023-03-27T22:07:12.179Z,1.63
2023-03-27T22:09:54.383Z,1.59
2023-03-27T22:12:23.478Z,1.56
2023-03-27T22:14:52.508Z,1.51
2023-03-27T22:17:34.841Z,1.47
2023-03-27T22:20:26.358Z,1.43
2023-03-27T22:22:57.855Z,1.40
2023-03-27T22:25:26.110Z,1.40
2023-03-27T22:28:03.787Z,1.42
2023-03-27T22:30:32.108Z,1.42
2023-03-27T22:33:00.988Z,1.39
2023-03-27T22:35:29.568Z,1.33
2023-03-27T22:38:01.449Z,1.33
2023-03-27T22:41:29.211Z,1.28
2023-03-27T22:44:00.330Z,1.22
2023-03-27T22:46:49.067Z,1.20
2023-03-27T22:49:17.609Z,1.16
2023-03-27T22:52:01.842Z,1.14
2023-03-27T22:54:56.336Z,1.09
2023-03-27T22:57:24.814Z,1.00
2023-03-27T22:59:53.822Z,0.97
2023-03-27T23:02:22.248Z,0.96
2023-03-27T23:05:13.731Z,0.91
2023-03-27T23:07:42.410Z,0.88
2023-03-27T23:10:33.615Z,0.84
2023-03-27T23:13:15.102Z,0.81
2023-03-27T23:15:43.476Z,0.81
2023-03-27T23:18:25.584Z,0.75
2023-03-27T23:21:06.072Z,0.65
2023-03-27T23:23:45.503Z,0.65
2023-03-27T23:26:14.153Z,0.60
2023-03-27T23:28:45.517Z,0.56
2023-03-27T23:31:57.399Z,0.57
2023-03-27T23:34:26.214Z,0.53
2023-03-27T23:36:58.088Z,0.54
2023-03-27T23:39:42.151Z,0.48
2023-03-27T23:42:10.700Z,0.46
2023-03-27T23:45:01.833Z,0.42
2023-03-27T23:47:36.336Z,0.41
2023-03-27T23:50:05.784Z,0.37
2023-03-27T23:52:51.639Z,0.39
2023-03-27T23:55:30.778Z,0.40
2023-03-27T23:58:12.676Z,0.38
